Time;durP1;ratioP1;P1;durP2;ratioP2;P2;SDS_P1;SDS_P2;PMS_P1;PMS_P2;Temp;Humidity;BMP_temperature;BMP_pressure;BME280_temperature;BME280_humidity;BME280_pressure;Samples;Min_cycle;Max_cycle;Signal;HPM_P1;HPM_P2
2023/09/28 00:00:51;;;;;;;;;11.20;10.00;;;;;-143.00;100.00;60422.56;5095821;27;45299;-68
2023/09/28 00:03:17;;;;;;;;;13.80;10.80;;;;;-143.00;100.00;60422.56;5086656;27;45372;-68
2023/09/28 00:05:42;;;;;;;;;14.00;13.25;;;;;-143.00;100.00;60422.56;5095987;27;45331;-67
2023/09/28 00:08:07;;;;;;;;;13.75;12.50;;;;;-143.00;100.00;60422.56;5089304;27;46287;-67
2023/09/28 00:10:33;;;;;;;;;13.00;11.00;;;;;-143.00;100.00;60422.56;5094962;27;45435;-68
2023/09/28 00:12:59;;;;;;;;;12.25;10.50;;;;;-143.00;100.00;60422.56;5088965;27;45424;-67
2023/09/28 00:15:25;;;;;;;;;12.25;10.25;;;;;-143.00;100.00;60422.56;5094768;27;46118;-67
2023/09/28 00:17:51;;;;;;;;;13.00;11.00;;;;;-143.00;100.00;60422.56;5095746;27;45690;-67
2023/09/28 00:20:17;;;;;;;;;11.40;11.40;;;;;-143.00;100.00;60422.56;5095603;27;45531;-67
2023/09/28 00:22:48;;;;;;;;;13.50;10.50;;;;;-143.00;100.00;60422.56;5092350;27;45488;-67
2023/09/28 00:25:16;;;;;;;;;14.50;12.00;;;;;-143.00;100.00;60422.56;5073846;27;46211;-67
2023/09/28 00:27:44;;;;;;;;;13.80;10.60;;;;;-143.00;100.00;60422.56;5091067;27;46356;-67
2023/09/28 00:30:15;;;;;;;;;12.00;12.00;;;;;-143.00;100.00;60422.56;5088186;27;45424;-67
2023/09/28 00:32:44;;;;;;;;;14.25;12.25;;;;;-143.00;100.00;60422.56;5092283;27;45355;-67
2023/09/28 00:35:10;;;;;;;;;14.75;11.75;;;;;-143.00;100.00;60422.56;5073759;27;45562;-67
2023/09/28 00:37:35;;;;;;;;;15.75;14.50;;;;;-143.00;100.00;60422.56;5084715;27;45418;-67
2023/09/28 00:40:13;;;;;;;;;11.25;11.25;;;;;-143.00;100.00;60422.56;5093274;27;45413;-67
2023/09/28 00:42:38;;;;;;;;;15.75;13.25;;;;;-143.00;100.00;60422.56;5072572;27;45557;-67
2023/09/28 00:45:04;;;;;;;;;16.25;12.75;;;;;-143.00;100.00;60422.56;5093669;27;45379;-67
2023/09/28 00:47:31;;;;;;;;;12.25;11.50;;;;;-143.00;100.00;60422.56;5092934;27;45421;-67
2023/09/28 00:49:56;;;;;;;;;15.00;13.20;;;;;-143.00;100.00;60422.56;5084419;27;45596;-68
2023/09/28 00:52:23;;;;;;;;;14.50;14.00;;;;;-143.00;100.00;60422.56;5081455;27;45981;-67
2023/09/28 00:54:49;;;;;;;;;14.00;13.00;;;;;-143.00;100.00;60422.56;5093701;27;45639;-68
2023/09/28 00:57:15;;;;;;;;;14.00;10.80;;;;;-143.00;100.00;60422.56;5093865;27;46121;-67
2023/09/28 00:59:41;;;;;;;;;14.00;11.40;;;;;-143.00;100.00;60422.56;5092603;27;45521;-67
2023/09/28 01:02:08;;;;;;;;;11.00;11.00;;;;;-143.00;100.00;60422.56;5064033;27;45558;-67
2023/09/28 01:04:35;;;;;;;;;12.00;10.50;;;;;-143.00;100.00;60422.56;5099155;27;45509;-67
2023/09/28 01:07:01;;;;;;;;;10.80;10.80;;;;;-143.00;100.00;60422.56;5095045;27;46183;-67
2023/09/28 01:09:26;;;;;;;;;13.50;13.50;;;;;-143.00;100.00;60422.56;5089220;27;45605;-67
2023/09/28 01:11:52;;;;;;;;;11.25;11.25;;;;;-143.00;100.00;60422.56;5094758;27;45527;-67
2023/09/28 01:14:19;;;;;;;;;14.50;11.25;;;;;-143.00;100.00;60422.56;5081004;27;45861;-68
2023/09/28 01:16:44;;;;;;;;;11.20;10.60;;;;;-143.00;100.00;60422.56;5094642;27;45719;-67
2023/09/28 01:19:11;;;;;;;;;11.50;11.00;;;;;-143.00;100.00;60422.56;5095464;27;45357;-67
2023/09/28 01:21:36;;;;;;;;;16.25;13.00;;;;;-143.00;100.00;60422.56;5094795;27;45392;-67
2023/09/28 01:24:02;;;;;;;;;10.75;10.75;;;;;-143.00;100.00;60422.56;5093945;27;45472;-67
2023/09/28 01:26:30;;;;;;;;;12.25;12.00;;;;;-143.00;100.00;60422.56;5086564;27;46338;-67
2023/09/28 01:28:56;;;;;;;;;12.00;12.00;;;;;-143.00;100.00;60422.56;5097479;27;45322;-67
2023/09/28 01:31:22;;;;;;;;;13.00;11.40;;;;;-143.00;100.00;60422.56;5092967;27;45482;-67
2023/09/28 01:33:47;;;;;;;;;10.75;10.75;;;;;-143.00;100.00;60422.56;5107507;27;45521;-67
2023/09/28 01:36:13;;;;;;;;;14.50;12.00;;;;;-143.00;100.00;60422.56;5098505;27;46291;-67
2023/09/28 01:38:43;;;;;;;;;12.25;12.00;;;;;-143.00;100.00;60422.56;5095034;27;45535;-67
2023/09/28 01:41:08;;;;;;;;;15.75;10.00;;;;;-143.00;100.00;60422.56;5078245;27;45388;-68
2023/09/28 01:43:35;;;;;;;;;12.25;11.75;;;;;-143.00;100.00;60422.56;5096205;27;45605;-67
2023/09/28 01:46:01;;;;;;;;;12.75;11.50;;;;;-143.00;100.00;60422.56;5094432;27;45522;-67
2023/09/28 01:48:26;;;;;;;;;10.50;10.50;;;;;-143.00;100.00;60422.56;5093958;27;45475;-67
2023/09/28 01:50:52;;;;;;;;;10.00;10.00;;;;;-143.00;100.00;60422.56;5078067;27;45378;-67
2023/09/28 01:53:17;;;;;;;;;13.00;11.50;;;;;-143.00;100.00;60422.56;5089581;27;45594;-67
2023/09/28 01:55:43;;;;;;;;;11.50;11.50;;;;;-143.00;100.00;60422.56;5075943;27;47141;-68
2023/09/28 01:58:09;;;;;;;;;11.50;9.75;;;;;-143.00;100.00;60422.56;5087584;27;45539;-67
2023/09/28 02:00:37;;;;;;;;;9.75;9.00;;;;;-143.00;100.00;60422.56;5095122;27;45479;-68
2023/09/28 02:03:04;;;;;;;;;9.75;8.25;;;;;-143.00;100.00;60422.56;5072309;28;46307;-67
2023/09/28 02:05:32;;;;;;;;;7.00;6.50;;;;;-143.00;100.00;60422.56;5091641;27;46597;-67
2023/09/28 02:07:58;;;;;;;;;14.80;13.20;;;;;-143.00;100.00;60422.56;5093226;27;45555;-67
2023/09/28 02:10:24;;;;;;;;;11.75;11.75;;;;;-143.00;100.00;60422.56;5088885;27;45385;-67
2023/09/28 02:12:50;;;;;;;;;11.75;9.25;;;;;-143.00;100.00;60422.56;5090041;27;45503;-68
2023/09/28 02:15:16;;;;;;;;;14.75;12.75;;;;;-143.00;100.00;60422.56;5097255;27;45621;-67
2023/09/28 02:17:43;;;;;;;;;14.25;11.50;;;;;-143.00;100.00;60422.56;5094139;27;45439;-67
2023/09/28 02:20:10;;;;;;;;;15.50;11.25;;;;;-143.00;100.00;60422.56;5090481;27;45498;-67
2023/09/28 02:22:48;;;;;;;;;9.25;7.00;;;;;-143.00;100.00;60422.56;5096763;27;45484;-67
2023/09/28 02:25:17;;;;;;;;;12.50;12.25;;;;;-143.00;100.00;60422.56;5067699;27;46021;-67
2023/09/28 02:27:43;;;;;;;;;14.40;11.20;;;;;-143.00;100.00;60422.56;5108162;27;45357;-67
2023/09/28 02:30:13;;;;;;;;;10.25;10.00;;;;;-143.00;100.00;60422.56;5084107;27;45659;-67
2023/09/28 02:32:39;;;;;;;;;14.00;12.00;;;;;-143.00;100.00;60422.56;5095583;27;45298;-67
2023/09/28 02:35:09;;;;;;;;;12.25;11.25;;;;;-143.00;100.00;60422.56;5079358;27;46755;-68
2023/09/28 02:37:35;;;;;;;;;13.00;9.80;;;;;-143.00;100.00;60422.56;5095840;27;45438;-67
2023/09/28 02:40:04;;;;;;;;;14.75;12.75;;;;;-143.00;100.00;60422.56;5090149;27;45616;-67
2023/09/28 02:42:30;;;;;;;;;12.50;11.50;;;;;-143.00;100.00;60422.56;5098709;27;45506;-67
2023/09/28 02:44:56;;;;;;;;;11.25;11.25;;;;;-143.00;100.00;60422.56;5100763;27;45873;-67
2023/09/28 02:47:22;;;;;;;;;13.00;11.80;;;;;-143.00;100.00;60422.56;5098514;27;45418;-67
2023/09/28 02:49:48;;;;;;;;;11.75;11.50;;;;;-143.00;100.00;60422.56;5078452;27;45475;-67
2023/09/28 02:52:14;;;;;;;;;14.75;13.25;;;;;-143.00;100.00;60422.56;5100456;27;45458;-67
2023/09/28 02:54:39;;;;;;;;;13.75;12.75;;;;;-143.00;100.00;60422.56;5094195;27;45407;-67
2023/09/28 02:57:04;;;;;;;;;12.75;12.00;;;;;-143.00;100.00;60422.56;5096438;27;45393;-67
2023/09/28 02:59:31;;;;;;;;;14.50;13.25;;;;;-143.00;100.00;60422.56;5096836;27;45852;-67
2023/09/28 03:01:56;;;;;;;;;13.75;12.00;;;;;-143.00;100.00;60422.56;5111700;27;45599;-67
2023/09/28 03:04:22;;;;;;;;;11.25;9.75;;;;;-143.00;100.00;60422.56;5095668;27;46499;-67
2023/09/28 03:06:48;;;;;;;;;14.25;13.25;;;;;-143.00;100.00;60422.56;5098817;27;45459;-67
2023/09/28 03:09:16;;;;;;;;;12.25;11.25;;;;;-143.00;100.00;60422.56;5096260;27;45511;-67
2023/09/28 03:11:42;;;;;;;;;11.50;11.50;;;;;-143.00;100.00;60422.56;5102775;27;45432;-67
2023/09/28 03:14:07;;;;;;;;;13.75;10.50;;;;;-143.00;100.00;60422.56;5096930;27;46446;-67
2023/09/28 03:16:33;;;;;;;;;15.75;12.75;;;;;-143.00;100.00;60422.56;5094481;27;45437;-67
2023/09/28 03:19:00;;;;;;;;;9.00;8.00;;;;;-143.00;100.00;60422.56;5077617;27;45496;-67
2023/09/28 03:21:29;;;;;;;;;9.00;8.75;;;;;-143.00;100.00;60422.56;5097139;27;45476;-67
2023/09/28 03:24:01;;;;;;;;;12.50;12.00;;;;;-143.00;100.00;60422.56;5099857;27;45536;-67
2023/09/28 03:26:30;;;;;;;;;14.20;13.00;;;;;-143.00;100.00;60422.56;5075740;27;45445;-68
2023/09/28 03:28:58;;;;;;;;;12.00;11.00;;;;;-143.00;100.00;60422.56;5089338;27;45407;-68
2023/09/28 03:31:27;;;;;;;;;10.25;9.25;;;;;-143.00;100.00;60422.56;5101376;27;45749;-67
2023/09/28 03:33:56;;;;;;;;;13.00;13.00;;;;;-143.00;100.00;60422.56;5099126;27;45351;-67
2023/09/28 03:36:22;;;;;;;;;10.80;9.60;;;;;-143.00;100.00;60422.56;5093994;27;45505;-67
2023/09/28 03:38:48;;;;;;;;;10.75;10.75;;;;;-143.00;100.00;60422.56;5097547;27;45426;-67
2023/09/28 03:41:13;;;;;;;;;14.50;11.25;;;;;-143.00;100.00;60422.56;5095789;27;45452;-67
2023/09/28 03:43:39;;;;;;;;;11.75;10.25;;;;;-143.00;100.00;60422.56;5091194;27;45470;-67
2023/09/28 03:46:05;;;;;;;;;19.00;15.00;;;;;-143.00;100.00;60422.56;5096687;27;45535;-67
2023/09/28 03:48:30;;;;;;;;;15.75;11.75;;;;;-143.00;100.00;60422.56;5093803;27;45464;-67
2023/09/28 03:50:56;;;;;;;;;11.75;10.75;;;;;-143.00;100.00;60422.56;5108787;27;45525;-67
2023/09/28 03:53:22;;;;;;;;;10.75;10.75;;;;;-143.00;100.00;60422.56;5093478;27;45459;-67
2023/09/28 03:55:49;;;;;;;;;11.25;9.25;;;;;-143.00;100.00;60422.56;5104252;27;45298;-67
2023/09/28 03:58:15;;;;;;;;;17.50;14.00;;;;;-143.00;100.00;60422.56;5074842;27;45544;-67
2023/09/28 04:00:41;;;;;;;;;13.00;12.50;;;;;-143.00;100.00;60422.56;5092204;27;45367;-67
2023/09/28 04:03:07;;;;;;;;;12.75;11.25;;;;;-143.00;100.00;60422.56;5106544;27;46232;-67
2023/09/28 04:05:32;;;;;;;;;15.40;12.40;;;;;-143.00;100.00;60422.56;5093057;27;45495;-68
2023/09/28 04:07:58;;;;;;;;;15.75;12.50;;;;;-143.00;100.00;60422.56;5078992;27;45449;-68
2023/09/28 04:10:23;;;;;;;;;16.00;15.00;;;;;-143.00;100.00;60422.56;5098879;27;45400;-67
2023/09/28 04:12:49;;;;;;;;;16.25;14.00;;;;;-143.00;100.00;60422.56;5100530;27;46099;-67
2023/09/28 04:15:16;;;;;;;;;14.75;14.75;;;;;-143.00;100.00;60422.56;5101907;27;45362;-67
2023/09/28 04:17:41;;;;;;;;;15.75;13.75;;;;;-143.00;100.00;60422.56;5076255;27;45432;-67
2023/09/28 04:20:09;;;;;;;;;10.25;9.00;;;;;-143.00;100.00;60422.56;5095224;27;45515;-68
2023/09/28 04:22:34;;;;;;;;;15.75;12.25;;;;;-143.00;100.00;60422.56;5095313;27;45602;-67
2023/09/28 04:25:01;;;;;;;;;19.25;13.25;;;;;-143.00;100.00;60422.56;5091459;27;45580;-67
2023/09/28 04:27:26;;;;;;;;;15.50;14.50;;;;;-143.00;100.00;60422.56;5079497;27;45648;-67
2023/09/28 04:29:52;;;;;;;;;16.25;13.25;;;;;-143.00;100.00;60422.56;5093392;27;45646;-67
2023/09/28 04:32:17;;;;;;;;;16.25;14.50;;;;;-143.00;100.00;60422.56;5099420;27;46048;-67
2023/09/28 04:34:42;;;;;;;;;14.00;12.25;;;;;-143.00;100.00;60422.56;5098590;27;45510;-67
2023/09/28 04:37:08;;;;;;;;;17.75;15.50;;;;;-143.00;100.00;60422.56;5099733;27;45392;-67
2023/09/28 04:39:34;;;;;;;;;20.50;17.25;;;;;-143.00;100.00;60422.56;5094758;27;45428;-68
2023/09/28 04:41:59;;;;;;;;;15.75;13.75;;;;;-143.00;100.00;60422.56;5094405;27;46055;-68
2023/09/28 04:44:25;;;;;;;;;15.75;14.25;;;;;-143.00;100.00;60422.56;5103850;27;45415;-68
2023/09/28 04:46:50;;;;;;;;;14.50;13.00;;;;;-143.00;100.00;60422.56;5102208;27;45413;-67
2023/09/28 04:49:19;;;;;;;;;12.50;12.50;;;;;-143.00;100.00;60422.56;5090447;27;45322;-67
2023/09/28 04:51:44;;;;;;;;;12.25;10.00;;;;;-143.00;100.00;60422.56;5076532;27;45467;-67
2023/09/28 04:54:10;;;;;;;;;16.75;14.50;;;;;-143.00;100.00;60422.56;5100517;27;45684;-68
2023/09/28 04:56:35;;;;;;;;;19.50;17.50;;;;;-143.00;100.00;60422.56;5102713;27;45568;-68
2023/09/28 04:59:02;;;;;;;;;22.75;19.00;;;;;-143.00;100.00;60422.56;5090357;27;45402;-68
2023/09/28 05:01:28;;;;;;;;;24.00;23.00;;;;;-143.00;100.00;60422.56;5094092;27;46286;-68
2023/09/28 05:03:53;;;;;;;;;20.25;20.25;;;;;-143.00;100.00;60422.56;5074611;27;45437;-67
2023/09/28 05:06:19;;;;;;;;;23.25;22.00;;;;;-143.00;100.00;60422.56;5096186;27;45423;-67
2023/09/28 05:08:44;;;;;;;;;26.75;23.75;;;;;-143.00;100.00;60422.56;5093614;27;45420;-67
2023/09/28 05:11:10;;;;;;;;;25.00;24.75;;;;;-143.00;100.00;60422.56;5105034;27;45469;-68
2023/09/28 05:13:35;;;;;;;;;27.50;24.00;;;;;-143.00;100.00;60422.56;5078805;27;45374;-67
2023/09/28 05:16:02;;;;;;;;;22.00;22.00;;;;;-143.00;100.00;60422.56;5080852;27;45334;-68
2023/09/28 05:18:27;;;;;;;;;20.25;17.75;;;;;-143.00;100.00;60422.56;5091831;27;45354;-67
2023/09/28 05:20:52;;;;;;;;;23.25;21.50;;;;;-143.00;100.00;60422.56;5098932;27;45306;-67
2023/09/28 05:23:18;;;;;;;;;22.25;22.25;;;;;-143.00;100.00;60422.56;5079254;27;45451;-67
2023/09/28 05:25:44;;;;;;;;;23.75;23.00;;;;;-143.00;100.00;60422.56;5107229;27;45725;-67
2023/09/28 05:28:10;;;;;;;;;20.50;20.50;;;;;-143.00;100.00;60422.56;5100049;27;45499;-67
2023/09/28 05:30:35;;;;;;;;;15.50;14.00;;;;;-143.00;100.00;60422.56;5101890;27;45416;-67
2023/09/28 05:33:01;;;;;;;;;23.75;23.75;;;;;-143.00;100.00;60422.56;5091496;27;45445;-67
2023/09/28 05:35:26;;;;;;;;;27.25;25.00;;;;;-143.00;100.00;60422.56;5103873;27;45526;-67
2023/09/28 05:37:52;;;;;;;;;23.50;18.50;;;;;-143.00;100.00;60422.56;5100700;27;45550;-68
2023/09/28 05:40:17;;;;;;;;;27.00;26.50;;;;;-143.00;100.00;60422.56;5079018;27;47137;-67
2023/09/28 05:42:43;;;;;;;;;26.25;24.25;;;;;-143.00;100.00;60422.56;5100842;27;45349;-67
2023/09/28 05:45:13;;;;;;;;;23.00;20.00;;;;;-143.00;100.00;60422.56;5080271;27;45401;-68
2023/09/28 05:47:38;;;;;;;;;17.50;17.25;;;;;-143.00;100.00;60422.56;5078444;27;45518;-67
2023/09/28 05:50:04;;;;;;;;;21.00;19.00;;;;;-143.00;100.00;60422.56;5086532;27;46263;-68
2023/09/28 05:52:30;;;;;;;;;24.60;17.80;;;;;-143.00;100.00;60422.56;5091367;27;45528;-68
2023/09/28 05:54:56;;;;;;;;;15.75;14.50;;;;;-143.00;100.00;60422.56;5087303;27;45515;-68
2023/09/28 05:57:22;;;;;;;;;11.00;11.00;;;;;-143.00;100.00;60422.56;5094676;27;45607;-68
2023/09/28 05:59:48;;;;;;;;;16.25;15.00;;;;;-143.00;100.00;60422.56;5070999;27;47075;-68
2023/09/28 06:02:14;;;;;;;;;5.50;2.50;;;;;-143.00;100.00;60422.56;5077608;27;45472;-68
2023/09/28 06:04:41;;;;;;;;;20.50;16.75;;;;;-143.00;100.00;60422.56;5078636;27;45517;-68
2023/09/28 06:07:06;;;;;;;;;16.50;15.00;;;;;-143.00;100.00;60422.56;5081743;27;45366;-69
2023/09/28 06:09:31;;;;;;;;;15.75;12.75;;;;;-143.00;100.00;60422.56;5074849;27;46674;-69
2023/09/28 06:11:57;;;;;;;;;13.50;13.00;;;;;-143.00;100.00;60422.56;5077509;27;45700;-68
2023/09/28 06:14:23;;;;;;;;;13.75;13.50;;;;;-143.00;100.00;60422.56;5070785;27;45457;-68
2023/09/28 06:16:48;;;;;;;;;14.25;14.00;;;;;-143.00;100.00;60422.56;5096263;27;45435;-68
2023/09/28 06:19:14;;;;;;;;;10.00;8.00;;;;;-143.00;100.00;60422.56;5071137;27;45509;-68
2023/09/28 06:21:39;;;;;;;;;20.75;15.00;;;;;-143.00;100.00;60422.56;5093542;27;45394;-68
2023/09/28 06:24:05;;;;;;;;;17.25;14.75;;;;;-143.00;100.00;60422.56;5091743;27;45546;-68
2023/09/28 06:26:32;;;;;;;;;16.75;15.50;;;;;-143.00;100.00;60422.56;5094964;27;45478;-69
2023/09/28 06:28:58;;;;;;;;;23.75;17.25;;;;;-143.00;100.00;60422.56;5090473;27;46232;-68
2023/09/28 06:31:23;;;;;;;;;20.50;20.50;;;;;-143.00;100.00;60422.56;5071102;27;45488;-68
2023/09/28 06:33:49;;;;;;;;;16.50;16.50;;;;;-143.00;100.00;60422.56;5091450;27;45484;-68
2023/09/28 06:36:16;;;;;;;;;23.00;21.00;;;;;-143.00;100.00;60422.56;5093564;27;45342;-68
2023/09/28 06:38:41;;;;;;;;;22.25;19.25;;;;;-143.00;100.00;60422.56;5101590;27;45370;-68
2023/09/28 06:41:07;;;;;;;;;20.50;17.25;;;;;-143.00;100.00;60422.56;5087371;27;45420;-68
2023/09/28 06:43:33;;;;;;;;;16.50;16.50;;;;;-143.00;100.00;60422.56;5091435;27;45321;-69
2023/09/28 06:45:59;;;;;;;;;19.25;18.50;;;;;-143.00;100.00;60422.56;5089175;27;45457;-68
2023/09/28 06:48:26;;;;;;;;;18.75;15.75;;;;;-143.00;100.00;60422.56;5088630;27;46533;-68
2023/09/28 06:50:53;;;;;;;;;20.00;16.60;;;;;-143.00;100.00;60422.56;5095465;27;45445;-68
2023/09/28 06:53:19;;;;;;;;;18.75;17.75;;;;;-143.00;100.00;60422.56;5067627;28;45399;-69
2023/09/28 06:55:45;;;;;;;;;19.50;17.00;;;;;-143.00;100.00;60422.56;5089952;27;45543;-68
2023/09/28 06:58:14;;;;;;;;;16.25;15.25;;;;;-143.00;100.00;60422.56;5088599;27;45427;-68
2023/09/28 07:00:41;;;;;;;;;17.80;14.60;;;;;-143.00;100.00;60422.56;5101914;27;45450;-68
2023/09/28 07:03:08;;;;;;;;;14.75;14.00;;;;;-143.00;100.00;60422.56;5097884;27;45569;-68
2023/09/28 07:05:33;;;;;;;;;22.75;21.25;;;;;-143.00;100.00;60422.56;5094810;27;45378;-68
2023/09/28 07:08:00;;;;;;;;;22.75;17.25;;;;;-143.00;100.00;60422.56;5089525;27;46702;-68
2023/09/28 07:10:26;;;;;;;;;13.60;13.00;;;;;-143.00;100.00;60422.56;5095249;27;45388;-68
2023/09/28 07:12:51;;;;;;;;;15.75;14.25;;;;;-143.00;100.00;60422.56;5090853;27;45375;-68
2023/09/28 07:15:17;;;;;;;;;17.00;14.75;;;;;-143.00;100.00;60422.56;5085711;27;45472;-68
2023/09/28 07:17:42;;;;;;;;;14.25;13.25;;;;;-143.00;100.00;60422.56;5090830;27;46522;-68
2023/09/28 07:20:09;;;;;;;;;11.75;10.50;;;;;-143.00;100.00;60422.56;5103849;27;45467;-69
2023/09/28 07:22:34;;;;;;;;;10.75;10.00;;;;;-143.00;100.00;60422.56;5093005;27;45522;-57
2023/09/28 07:25:00;;;;;;;;;13.25;13.25;;;;;-143.00;100.00;60422.56;5075383;27;45721;-56
2023/09/28 07:27:31;;;;;;;;;18.50;15.50;;;;;-143.00;100.00;60422.56;5092137;27;45686;-57
2023/09/28 07:29:57;;;;;;;;;18.60;14.00;;;;;-143.00;100.00;60422.56;5089146;27;45439;-56
2023/09/28 07:32:22;;;;;;;;;16.75;15.25;;;;;-143.00;100.00;60422.56;5093601;27;45411;-56
2023/09/28 07:34:48;;;;;;;;;16.25;14.75;;;;;-143.00;100.00;60422.56;5076020;27;45500;-56
2023/09/28 07:37:14;;;;;;;;;22.25;17.75;;;;;-143.00;100.00;60422.56;5093762;27;45471;-54
2023/09/28 07:39:40;;;;;;;;;20.60;17.80;;;;;-143.00;100.00;60422.56;5075453;27;45981;-56
2023/09/28 07:42:07;;;;;;;;;20.00;15.25;;;;;-143.00;100.00;60422.56;5094154;27;45509;-57
2023/09/28 07:44:33;;;;;;;;;23.50;17.50;;;;;-143.00;100.00;60422.56;5087254;27;45619;-56
2023/09/28 07:46:59;;;;;;;;;21.75;20.50;;;;;-143.00;100.00;60422.56;5093590;27;45405;-56
2023/09/28 07:49:24;;;;;;;;;19.40;17.80;;;;;-143.00;100.00;60422.56;5086876;27;45463;-56
2023/09/28 07:51:50;;;;;;;;;18.25;15.50;;;;;-143.00;100.00;60422.56;5090922;27;45436;-55
2023/09/28 07:54:15;;;;;;;;;18.00;17.75;;;;;-143.00;100.00;60422.56;5087170;27;45570;-56
2023/09/28 07:56:40;;;;;;;;;17.00;16.00;;;;;-143.00;100.00;60422.56;5093060;27;45737;-56
2023/09/28 07:59:06;;;;;;;;;19.25;15.25;;;;;-143.00;100.00;60422.56;5068288;27;45939;-56
2023/09/28 08:01:37;;;;;;;;;17.25;16.75;;;;;-143.00;100.00;60422.56;5088500;27;45414;-56
2023/09/28 08:04:02;;;;;;;;;17.50;15.50;;;;;-143.00;100.00;60422.56;5088065;27;45476;-56
2023/09/28 08:06:28;;;;;;;;;15.50;15.50;;;;;-143.00;100.00;60422.56;5075866;27;46132;-56
2023/09/28 08:08:53;;;;;;;;;20.50;15.25;;;;;-143.00;100.00;60422.56;5071566;27;45484;-55
2023/09/28 08:11:18;;;;;;;;;17.25;15.75;;;;;-143.00;100.00;60422.56;5093725;27;45751;-56
2023/09/28 08:13:44;;;;;;;;;16.25;15.25;;;;;-143.00;100.00;60422.56;5084474;27;45344;-54
2023/09/28 08:16:09;;;;;;;;;15.00;13.75;;;;;-143.00;100.00;60422.56;5089511;27;45961;-56
2023/09/28 08:18:35;;;;;;;;;19.00;16.75;;;;;-143.00;100.00;60422.56;5091331;27;45390;-54
2023/09/28 08:21:00;;;;;;;;;17.75;15.75;;;;;-143.00;100.00;60422.56;5068868;27;45423;-55
2023/09/28 08:23:26;;;;;;;;;6.75;4.75;;;;;-143.00;100.00;60422.56;5087164;27;45547;-54
2023/09/28 08:25:51;;;;;;;;;17.50;15.75;;;;;-143.00;100.00;60422.56;5093074;27;45437;-55
2023/09/28 08:28:17;;;;;;;;;17.50;17.50;;;;;-143.00;100.00;60422.56;5089535;27;45342;-55
2023/09/28 08:30:42;;;;;;;;;15.75;15.50;;;;;-143.00;100.00;60422.56;5091608;27;45392;-56
2023/09/28 08:33:08;;;;;;;;;15.00;14.25;;;;;-143.00;100.00;60422.56;5093178;27;45371;-56
2023/09/28 08:35:35;;;;;;;;;19.50;16.75;;;;;-143.00;100.00;60422.56;5094474;27;45980;-55
2023/09/28 08:38:01;;;;;;;;;14.40;13.00;;;;;-143.00;100.00;60422.56;5089005;27;45755;-55
2023/09/28 08:40:27;;;;;;;;;20.50;15.75;;;;;-143.00;100.00;60422.56;5092347;27;45484;-55
2023/09/28 08:42:59;;;;;;;;;13.25;12.75;;;;;-143.00;100.00;60422.56;5069204;28;45480;-54
2023/09/28 08:45:27;;;;;;;;;14.80;12.40;;;;;-143.00;100.00;60422.56;5088455;27;46573;-56
2023/09/28 08:47:57;;;;;;;;;17.40;13.80;;;;;-143.00;100.00;60422.56;5089963;27;45384;-55
2023/09/28 08:50:38;;;;;;;;;15.00;15.00;;;;;-143.00;100.00;60422.56;5093133;27;45460;-55
2023/09/28 08:53:08;;;;;;;;;13.75;12.25;;;;;-143.00;100.00;60422.56;5088143;27;45516;-56
2023/09/28 08:55:34;;;;;;;;;12.50;11.75;;;;;-143.00;100.00;60422.56;5090350;27;46269;-55
2023/09/28 08:57:59;;;;;;;;;16.50;14.00;;;;;-143.00;100.00;60422.56;5068609;28;45758;-54
2023/09/28 09:00:25;;;;;;;;;18.75;17.00;;;;;-143.00;100.00;60422.56;5090309;27;45530;-53
2023/09/28 09:02:52;;;;;;;;;13.25;12.25;;;;;-143.00;100.00;60422.56;5090945;27;45465;-55
2023/09/28 09:05:17;;;;;;;;;14.00;13.25;;;;;-143.00;100.00;60422.56;5092080;27;46291;-56
2023/09/28 09:07:43;;;;;;;;;17.25;11.50;;;;;-143.00;100.00;60422.56;5091238;27;45359;-55
2023/09/28 09:10:16;;;;;;;;;13.60;11.00;;;;;-143.00;100.00;60422.56;5070093;27;45456;-56
2023/09/28 09:12:41;;;;;;;;;11.25;11.25;;;;;-143.00;100.00;60422.56;5071666;27;45664;-56
2023/09/28 09:15:08;;;;;;;;;14.50;12.00;;;;;-143.00;100.00;60422.56;5089608;27;46627;-56
2023/09/28 09:17:34;;;;;;;;;13.40;12.00;;;;;-143.00;100.00;60422.56;5090352;27;45605;-56
2023/09/28 09:20:00;;;;;;;;;16.20;14.20;;;;;-143.00;100.00;60422.56;5093963;27;45388;-55
2023/09/28 09:22:28;;;;;;;;;13.50;11.00;;;;;-143.00;100.00;60422.56;5091038;27;45426;-56
2023/09/28 09:25:00;;;;;;;;;11.80;10.60;;;;;-143.00;100.00;60422.56;5083681;27;46590;-65
2023/09/28 09:27:29;;;;;;;;;13.20;10.40;;;;;-143.00;100.00;60422.56;5078717;27;45275;-60
2023/09/28 09:30:14;;;;;;;;;13.00;11.00;;;;;-143.00;100.00;60422.56;5088988;27;45426;-59
2023/09/28 09:32:42;;;;;;;;;11.75;11.75;;;;;-143.00;100.00;60422.56;5094861;27;45535;-59
2023/09/28 09:35:09;;;;;;;;;13.60;12.80;;;;;-143.00;100.00;60422.56;5099033;27;45521;-59
2023/09/28 09:37:41;;;;;;;;;12.40;9.60;;;;;-143.00;100.00;60422.56;5093957;27;45396;-59
2023/09/28 09:40:13;;;;;;;;;13.80;12.40;;;;;-143.00;100.00;60422.56;5090681;27;45427;-59
2023/09/28 09:42:39;;;;;;;;;12.60;11.00;;;;;-143.00;100.00;60422.56;5088673;27;45286;-59
2023/09/28 09:45:07;;;;;;;;;13.75;11.75;;;;;-143.00;100.00;60422.56;5095937;27;45582;-59
2023/09/28 09:47:32;;;;;;;;;16.00;16.00;;;;;-143.00;100.00;60422.56;5093623;27;45593;-60
2023/09/28 09:49:59;;;;;;;;;14.50;12.75;;;;;-143.00;100.00;60422.56;5091961;27;45383;-66
2023/09/28 09:52:26;;;;;;;;;11.60;10.60;;;;;-143.00;100.00;60422.56;5095108;27;45436;-66
2023/09/28 09:54:51;;;;;;;;;11.25;11.25;;;;;-143.00;100.00;60422.56;5084225;27;45408;-66
2023/09/28 09:57:20;;;;;;;;;15.25;11.00;;;;;-143.00;100.00;60422.56;5095626;27;45330;-66
2023/09/28 09:59:48;;;;;;;;;11.40;10.40;;;;;-143.00;100.00;60422.56;5094706;27;45526;-65
2023/09/28 10:02:24;;;;;;;;;14.25;11.50;;;;;-143.00;100.00;60422.56;5095917;27;45542;-67
2023/09/28 10:04:54;;;;;;;;;11.60;10.00;;;;;-143.00;100.00;60422.56;5096323;27;45471;-67
2023/09/28 10:07:25;;;;;;;;;16.00;13.00;;;;;-143.00;100.00;60422.56;5081274;27;45463;-65
2023/09/28 10:09:52;;;;;;;;;10.80;10.00;;;;;-143.00;100.00;60422.56;5089136;27;45532;-65
2023/09/28 10:12:19;;;;;;;;;16.25;10.00;;;;;-143.00;100.00;60422.56;5099876;27;45519;-65
2023/09/28 10:14:45;;;;;;;;;13.20;12.40;;;;;-143.00;100.00;60422.56;5095610;27;45592;-65
2023/09/28 10:17:11;;;;;;;;;14.00;12.25;;;;;-143.00;100.00;60422.56;5116107;27;45517;-65
2023/09/28 10:19:38;;;;;;;;;15.75;15.75;;;;;-143.00;100.00;60422.56;5072646;27;45614;-66
2023/09/28 10:22:04;;;;;;;;;19.00;13.00;;;;;-143.00;100.00;60422.56;5076901;27;45523;-65
2023/09/28 10:24:31;;;;;;;;;12.75;11.00;;;;;-143.00;100.00;60422.56;5095229;27;45343;-66
2023/09/28 10:26:57;;;;;;;;;11.40;11.20;;;;;-143.00;100.00;60422.56;5073662;27;45310;-65
2023/09/28 10:29:28;;;;;;;;;11.25;9.75;;;;;-143.00;100.00;60422.56;5069845;28;45473;-65
2023/09/28 10:31:55;;;;;;;;;10.20;10.20;;;;;-143.00;100.00;60422.56;5077006;27;45428;-65
2023/09/28 10:34:23;;;;;;;;;10.00;9.60;;;;;-143.00;100.00;60422.56;5096326;27;46395;-66
2023/09/28 10:37:11;;;;;;;;;11.20;10.60;;;;;-143.00;100.00;60422.56;5095855;27;45409;-66
2023/09/28 10:39:38;;;;;;;;;9.80;9.60;;;;;-143.00;100.00;60422.56;5084363;27;45470;-66
2023/09/28 10:42:12;;;;;;;;;12.40;10.80;;;;;-143.00;100.00;60422.56;5095149;27;45361;-66
2023/09/28 10:44:56;;;;;;;;;11.20;10.20;;;;;-143.00;100.00;60422.56;5087928;27;46361;-66
2023/09/28 10:47:23;;;;;;;;;9.60;7.80;;;;;-143.00;100.00;60422.56;5076244;27;45417;-66
2023/09/28 10:49:57;;;;;;;;;12.80;11.60;;;;;-143.00;100.00;60422.56;5086446;27;45419;-65
2023/09/28 10:52:23;;;;;;;;;12.00;12.00;;;;;-143.00;100.00;60422.56;5069047;27;45477;-65